TimeAKDT,TemperatureF,Dew PointF,Humidity,Sea Level PressureIn,VisibilityMPH,Wind Direction,Wind SpeedMPH,Gust SpeedMPH,PrecipitationIn,Events,Conditions,WindDirDegrees,DateUTC
12:16 AM,59.0,53.6,82,30.08,10.0,WSW,3.5,-,N/A,,Overcast,250,2013-08-06 08:16:00
12:36 AM,59.0,53.6,82,30.08,10.0,West,4.6,-,N/A,,Overcast,260,2013-08-06 08:36:00
12:56 AM,57.2,53.6,88,30.08,10.0,WSW,3.5,-,N/A,,Overcast,250,2013-08-06 08:56:00
1:16 AM,57.2,53.6,88,30.07,9.0,Calm,Calm,-,N/A,,Overcast,0,2013-08-06 09:16:00
1:36 AM,57.2,53.6,88,30.07,10.0,Calm,Calm,-,N/A,,Overcast,0,2013-08-06 09:36:00
1:56 AM,57.2,53.6,88,30.07,10.0,Calm,Calm,-,N/A,,Overcast,0,2013-08-06 09:56:00
2:16 AM,57.2,53.6,88,30.07,10.0,WNW,3.5,-,N/A,,Overcast,300,2013-08-06 10:16:00
2:36 AM,57.2,53.6,88,30.07,10.0,Calm,Calm,-,N/A,,Overcast,0,2013-08-06 10:36:00
2:56 AM,57.2,51.8,82,30.06,9.0,Calm,Calm,-,N/A,,Overcast,0,2013-08-06 10:56:00
3:16 AM,57.2,53.6,88,30.06,4.0,West,3.5,-,N/A,,Overcast,260,2013-08-06 11:16:00
3:36 AM,57.2,53.6,88,30.06,10.0,WSW,3.5,-,N/A,,Overcast,240,2013-08-06 11:36:00
3:56 AM,57.2,53.6,88,30.06,10.0,West,3.5,-,N/A,,Overcast,260,2013-08-06 11:56:00
4:16 AM,57.2,53.6,88,30.06,10.0,Calm,Calm,-,N/A,,Overcast,0,2013-08-06 12:16:00
4:36 AM,55.4,53.6,94,30.06,10.0,Calm,Calm,-,N/A,,Overcast,0,2013-08-06 12:36:00
4:56 AM,55.4,53.6,94,30.06,10.0,Calm,Calm,-,N/A,,Overcast,0,2013-08-06 12:56:00
5:16 AM,55.4,51.8,88,30.06,9.0,Calm,Calm,-,N/A,,Overcast,0,2013-08-06 13:16:00
5:36 AM,55.4,51.8,88,30.06,10.0,Calm,Calm,-,N/A,,Overcast,0,2013-08-06 13:36:00
5:56 AM,55.4,53.6,94,30.06,10.0,Calm,Calm,-,N/A,,Overcast,0,2013-08-06 13:56:00
6:16 AM,55.4,51.8,88,30.06,10.0,Calm,Calm,-,N/A,,Overcast,0,2013-08-06 14:16:00
6:36 AM,55.4,51.8,88,30.07,10.0,Calm,Calm,-,N/A,,Overcast,0,2013-08-06 14:36:00
6:56 AM,57.2,53.6,88,30.07,10.0,Calm,Calm,-,N/A,,Overcast,0,2013-08-06 14:56:00
7:16 AM,55.4,51.8,88,30.07,10.0,NW,3.5,-,N/A,,Overcast,310,2013-08-06 15:16:00
7:36 AM,57.2,53.6,88,30.07,10.0,WNW,3.5,-,N/A,,Overcast,300,2013-08-06 15:36:00
7:56 AM,57.2,53.6,88,30.07,10.0,NW,3.5,-,N/A,,Overcast,320,2013-08-06 15:56:00
8:16 AM,57.2,51.8,82,30.07,10.0,NNW,3.5,-,N/A,,Overcast,330,2013-08-06 16:16:00
8:36 AM,57.2,53.6,88,30.07,10.0,NNW,3.5,-,N/A,,Overcast,340,2013-08-06 16:36:00
8:56 AM,57.2,53.6,88,30.07,10.0,NNW,4.6,-,N/A,,Overcast,330,2013-08-06 16:56:00
9:16 AM,57.2,53.6,88,30.07,10.0,NNW,4.6,-,N/A,,Overcast,330,2013-08-06 17:16:00
9:36 AM,59.0,53.6,82,30.07,10.0,Calm,Calm,-,N/A,,Overcast,0,2013-08-06 17:36:00
9:56 AM,59.0,53.6,82,30.07,10.0,NNW,3.5,-,N/A,,Overcast,330,2013-08-06 17:56:00
10:16 AM,60.8,53.6,77,30.07,10.0,NNW,3.5,-,N/A,,Overcast,330,2013-08-06 18:16:00
10:36 AM,60.8,55.4,82,30.07,10.0,North,3.5,-,N/A,,Overcast,350,2013-08-06 18:36:00
10:56 AM,60.8,55.4,82,30.07,10.0,NNW,3.5,-,N/A,,Overcast,330,2013-08-06 18:56:00
11:16 AM,60.8,55.4,82,30.07,10.0,NNW,3.5,-,N/A,,Overcast,330,2013-08-06 19:16:00
11:36 AM,60.8,55.4,82,30.07,10.0,NNW,4.6,-,N/A,,Overcast,330,2013-08-06 19:36:00
11:56 AM,62.6,55.4,77,30.07,10.0,NW,4.6,-,N/A,,Overcast,320,2013-08-06 19:56:00
12:16 PM,60.8,55.4,82,30.07,10.0,NNW,4.6,-,N/A,,Overcast,340,2013-08-06 20:16:00
12:36 PM,62.6,55.4,77,30.07,10.0,NNW,4.6,-,N/A,,Overcast,340,2013-08-06 20:36:00
12:56 PM,62.6,55.4,77,30.07,10.0,NNW,4.6,-,N/A,,Overcast,330,2013-08-06 20:56:00
1:16 PM,62.6,55.4,77,30.07,10.0,NW,5.8,-,N/A,,Overcast,320,2013-08-06 21:16:00
1:36 PM,62.6,55.4,77,30.07,10.0,NNW,5.8,-,N/A,,Overcast,330,2013-08-06 21:36:00
1:56 PM,62.6,55.4,77,30.07,10.0,NW,5.8,-,N/A,,Overcast,320,2013-08-06 21:56:00
2:16 PM,64.4,55.4,73,30.07,10.0,NW,4.6,-,N/A,,Overcast,320,2013-08-06 22:16:00
2:36 PM,64.4,53.6,68,30.06,10.0,West,3.5,-,N/A,,Overcast,280,2013-08-06 22:36:00
2:56 PM,64.4,55.4,73,30.06,10.0,NNW,5.8,-,N/A,,Overcast,340,2013-08-06 22:56:00
3:16 PM,64.4,55.4,73,30.06,10.0,NW,4.6,-,N/A,,Overcast,320,2013-08-06 23:16:00
3:36 PM,64.4,55.4,73,30.05,10.0,NNW,5.8,-,N/A,,Overcast,330,2013-08-06 23:36:00
3:56 PM,66.2,55.4,68,30.05,10.0,NNW,5.8,-,N/A,,Overcast,330,2013-08-06 23:56:00
4:16 PM,66.2,55.4,68,30.05,10.0,NNW,4.6,-,N/A,,Overcast,330,2013-08-07 00:16:00
4:36 PM,64.4,55.4,73,30.04,10.0,NW,4.6,-,N/A,,Overcast,320,2013-08-07 00:36:00
4:56 PM,66.2,55.4,68,30.04,10.0,WNW,4.6,-,N/A,,Overcast,300,2013-08-07 00:56:00
5:16 PM,64.4,55.4,73,30.04,10.0,NNW,5.8,-,N/A,,Mostly Cloudy,330,2013-08-07 01:16:00
5:36 PM,66.2,55.4,68,30.04,10.0,NW,5.8,-,N/A,,Mostly Cloudy,320,2013-08-07 01:36:00
5:56 PM,64.4,55.4,73,30.04,10.0,NW,5.8,-,N/A,,Mostly Cloudy,320,2013-08-07 01:56:00
6:16 PM,62.6,55.4,77,30.03,10.0,NW,6.9,-,N/A,,Mostly Cloudy,320,2013-08-07 02:16:00
6:36 PM,62.6,53.6,72,30.03,10.0,NW,4.6,-,N/A,,Mostly Cloudy,320,2013-08-07 02:36:00
6:56 PM,64.4,55.4,73,30.03,10.0,NW,5.8,-,N/A,,Mostly Cloudy,310,2013-08-07 02:56:00
7:16 PM,64.4,55.4,73,30.03,10.0,NW,5.8,-,N/A,,Mostly Cloudy,310,2013-08-07 03:16:00
7:36 PM,64.4,55.4,73,30.03,10.0,NW,4.6,-,N/A,,Mostly Cloudy,320,2013-08-07 03:36:00
7:56 PM,62.6,55.4,77,30.02,10.0,WNW,3.5,-,N/A,,Mostly Cloudy,300,2013-08-07 03:56:00
8:16 PM,62.6,53.6,72,30.02,10.0,Calm,Calm,-,N/A,,Scattered Clouds,0,2013-08-07 04:16:00
8:36 PM,62.6,53.6,72,30.02,10.0,Calm,Calm,-,N/A,,Scattered Clouds,0,2013-08-07 04:36:00
8:56 PM,60.8,53.6,77,30.02,10.0,SW,3.5,-,N/A,,Partly Cloudy,220,2013-08-07 04:56:00
9:16 PM,57.2,53.6,88,30.02,10.0,Calm,Calm,-,N/A,,Partly Cloudy,0,2013-08-07 05:16:00
9:36 PM,57.2,51.8,82,30.03,10.0,Calm,Calm,-,N/A,,Partly Cloudy,0,2013-08-07 05:36:00
9:56 PM,57.2,51.8,82,30.02,10.0,Calm,Calm,-,N/A,,Partly Cloudy,0,2013-08-07 05:56:00
10:16 PM,57.2,51.8,82,30.02,10.0,Calm,Calm,-,N/A,,Partly Cloudy,0,2013-08-07 06:16:00
10:36 PM,57.2,51.8,82,30.02,10.0,Calm,Calm,-,N/A,,Partly Cloudy,0,2013-08-07 06:36:00
10:56 PM,59.0,51.8,77,30.02,10.0,Calm,Calm,-,N/A,,Partly Cloudy,0,2013-08-07 06:56:00
11:16 PM,57.2,51.8,82,30.02,10.0,Calm,Calm,-,N/A,,Clear,0,2013-08-07 07:16:00
11:36 PM,55.4,51.8,88,30.02,10.0,WNW,3.5,-,N/A,,Clear,300,2013-08-07 07:36:00
11:56 PM,55.4,51.8,88,30.02,10.0,Calm,Calm,-,N/A,,Clear,0,2013-08-07 07:56:00